createdAt,value
2023-05-17T00:01:51.732Z,6.10
2023-05-17T00:04:20.046Z,6.10
2023-05-17T00:06:48.322Z,6.20
2023-05-17T00:09:16.567Z,6.10
2023-05-17T00:11:44.885Z,6.10
2023-05-17T00:14:14.611Z,6.20
2023-05-17T00:16:43.119Z,6.20
2023-05-17T00:19:11.510Z,6.20
2023-05-17T00:21:39.864Z,6.20
2023-05-17T00:24:09.320Z,6.10
2023-05-17T00:26:37.713Z,6.00
2023-05-17T00:29:06.057Z,6.00
2023-05-17T00:31:35.718Z,6.00
2023-05-17T00:34:03.945Z,6.00
2023-05-17T00:36:32.432Z,5.90
2023-05-17T00:39:00.694Z,5.90
2023-05-17T00:41:28.989Z,6.00
2023-05-17T00:43:57.256Z,5.90
2023-05-17T00:46:25.561Z,5.90
2023-05-17T00:48:55.784Z,5.90
2023-05-17T00:51:24.422Z,5.80
2023-05-17T00:53:53.165Z,5.70
2023-05-17T00:56:21.573Z,5.60
2023-05-17T00:58:50.062Z,5.60
2023-05-17T01:01:18.304Z,5.50
2023-05-17T01:03:47.210Z,5.50
2023-05-17T01:06:17.040Z,5.50
2023-05-17T01:08:45.682Z,5.60
2023-05-17T01:11:25.384Z,5.60
2023-05-17T01:14:01.302Z,5.60
2023-05-17T01:16:34.465Z,5.60
2023-05-17T01:19:12.693Z,5.60
2023-05-17T01:21:59.965Z,5.40
2023-05-17T01:24:31.448Z,5.30
2023-05-17T01:27:02.733Z,5.20
2023-05-17T01:29:33.210Z,5.10
2023-05-17T01:32:02.300Z,5.00
2023-05-17T01:34:31.160Z,4.90
2023-05-17T01:37:00.092Z,4.90
2023-05-17T01:39:29.476Z,4.80
2023-05-17T01:42:08.586Z,4.60
2023-05-17T01:44:44.569Z,4.50
2023-05-17T01:47:17.503Z,4.40
2023-05-17T01:49:50.118Z,4.30
2023-05-17T01:52:26.085Z,4.20
2023-05-17T01:55:00.159Z,4.10
2023-05-17T01:57:33.682Z,4.00
2023-05-17T02:00:06.105Z,4.00
2023-05-17T02:02:34.437Z,3.90
2023-05-17T02:05:02.825Z,3.80
2023-05-17T02:07:31.067Z,3.80
2023-05-17T02:09:59.335Z,3.80
2023-05-17T02:12:29.041Z,3.70
2023-05-17T02:14:57.266Z,3.70
2023-05-17T02:17:25.651Z,3.80
2023-05-17T02:19:53.989Z,3.70
2023-05-17T02:22:22.265Z,3.70
2023-05-17T02:24:50.553Z,3.70
2023-05-17T02:27:18.962Z,3.60
2023-05-17T02:29:48.607Z,3.60
2023-05-17T02:32:16.949Z,3.60
2023-05-17T02:34:45.465Z,3.60
2023-05-17T02:37:13.769Z,3.60
2023-05-17T02:39:42.102Z,3.60
2023-05-17T02:42:10.368Z,3.60
2023-05-17T02:44:38.655Z,3.60
2023-05-17T02:47:08.664Z,3.60
2023-05-17T02:49:36.998Z,3.60
2023-05-17T02:52:05.729Z,3.60
2023-05-17T02:54:33.952Z,3.70
2023-05-17T02:57:03.028Z,3.70
2023-05-17T02:59:31.382Z,3.70
2023-05-17T03:01:59.685Z,3.60
2023-05-17T03:04:29.449Z,3.70
2023-05-17T03:06:57.686Z,3.70
2023-05-17T03:09:25.960Z,3.80
2023-05-17T03:11:54.181Z,3.80
2023-05-17T03:14:22.469Z,3.90
2023-05-17T03:16:50.812Z,3.90
2023-05-17T03:19:19.268Z,3.90
2023-05-17T03:21:49.049Z,4.00
2023-05-17T03:24:17.343Z,4.00
2023-05-17T03:26:45.654Z,4.10
2023-05-17T03:29:13.906Z,4.10
2023-05-17T03:31:42.292Z,4.10
2023-05-17T03:34:10.657Z,4.10
2023-05-17T03:36:40.486Z,4.20
2023-05-17T03:39:10.253Z,4.20
2023-05-17T03:41:38.640Z,4.30
2023-05-17T03:44:07.061Z,4.30
2023-05-17T03:46:35.358Z,4.40
2023-05-17T03:49:04.003Z,4.40
2023-05-17T03:51:32.444Z,4.40
2023-05-17T03:54:02.286Z,4.50
2023-05-17T03:56:32.579Z,4.50
2023-05-17T03:59:00.852Z,4.50
2023-05-17T04:01:29.144Z,4.50
2023-05-17T04:03:57.451Z,4.50
2023-05-17T04:06:25.693Z,4.60
2023-05-17T04:08:55.101Z,4.60
2023-05-17T04:11:24.392Z,4.70
2023-05-17T04:13:54.202Z,4.70
2023-05-17T04:16:22.647Z,4.70
2023-05-17T04:18:52.967Z,4.70
2023-05-17T04:21:21.513Z,4.70
2023-05-17T04:23:49.866Z,4.70
2023-05-17T04:26:18.183Z,4.80
2023-05-17T04:28:46.466Z,4.80
2023-05-17T04:31:18.047Z,4.80
2023-05-17T04:33:46.543Z,4.90
2023-05-17T04:36:14.944Z,4.90
2023-05-17T04:38:43.288Z,4.90
2023-05-17T04:41:11.528Z,5.00
2023-05-17T04:43:39.854Z,5.00
2023-05-17T04:46:08.731Z,5.10
2023-05-17T04:48:39.283Z,5.10
2023-05-17T04:51:07.822Z,5.20
2023-05-17T04:53:36.085Z,5.20
2023-05-17T04:56:04.724Z,5.40
2023-05-17T04:58:33.102Z,5.50
2023-05-17T05:01:02.446Z,5.70
2023-05-17T05:03:30.706Z,5.90
2023-05-17T05:06:00.420Z,6.20
2023-05-17T05:08:29.501Z,6.50
2023-05-17T05:10:57.731Z,6.70
2023-05-17T05:13:25.999Z,6.90
2023-05-17T05:15:54.251Z,7.10
2023-05-17T05:18:22.750Z,7.20
2023-05-17T05:20:51.177Z,7.40
2023-05-17T05:23:20.861Z,7.50
2023-05-17T05:25:49.107Z,7.70
2023-05-17T05:28:17.412Z,7.90
2023-05-17T05:30:45.744Z,8.00
2023-05-17T05:33:14.009Z,8.10
2023-05-17T05:35:42.376Z,8.00
2023-05-17T05:38:10.628Z,7.80
2023-05-17T05:40:43.051Z,7.60
2023-05-17T05:43:11.305Z,7.40
2023-05-17T05:45:41.232Z,7.30
2023-05-17T05:48:09.607Z,7.30
2023-05-17T05:50:37.865Z,7.30
2023-05-17T05:53:17.304Z,7.40
2023-05-17T05:55:49.490Z,7.40
2023-05-17T05:58:17.795Z,7.30
2023-05-17T06:00:46.047Z,7.40
2023-05-17T06:03:14.310Z,7.40
2023-05-17T06:05:48.603Z,7.60
2023-05-17T06:08:17.096Z,7.90
2023-05-17T06:10:45.324Z,8.10
2023-05-17T06:13:17.914Z,8.20
2023-05-17T06:15:46.216Z,8.60
2023-05-17T06:18:17.112Z,9.40
2023-05-17T06:20:45.458Z,10.10
2023-05-17T06:23:13.912Z,10.80
2023-05-17T06:25:42.804Z,11.50
2023-05-17T06:28:11.081Z,12.10
2023-05-17T06:30:40.781Z,12.50
2023-05-17T06:33:09.184Z,12.60
2023-05-17T06:35:51.702Z,12.30
2023-05-17T06:38:24.267Z,12.20
2023-05-17T06:40:54.047Z,11.80
2023-05-17T06:43:24.764Z,11.20
2023-05-17T06:45:54.433Z,10.80
2023-05-17T06:48:22.791Z,10.70
2023-05-17T06:50:51.239Z,11.00
2023-05-17T06:53:19.458Z,11.40
2023-05-17T06:55:47.762Z,11.50
2023-05-17T06:58:16.012Z,11.50
2023-05-17T07:00:44.235Z,11.60
2023-05-17T07:03:13.991Z,11.90
2023-05-17T07:05:42.533Z,12.00
2023-05-17T07:08:10.732Z,11.80
2023-05-17T07:10:41.303Z,11.60
2023-05-17T07:13:09.511Z,11.50
2023-05-17T07:15:37.773Z,11.50
2023-05-17T07:18:06.249Z,11.60
2023-05-17T07:20:38.580Z,11.70
2023-05-17T07:23:06.984Z,11.80
2023-05-17T07:25:38.700Z,11.60
2023-05-17T07:28:07.149Z,11.60
2023-05-17T07:30:37.669Z,11.70
2023-05-17T07:33:09.103Z,11.80
2023-05-17T07:35:38.763Z,12.20
2023-05-17T07:38:06.965Z,12.50
2023-05-17T07:40:35.217Z,12.50
2023-05-17T07:43:04.472Z,12.40
2023-05-17T07:45:32.802Z,12.40
2023-05-17T07:48:02.335Z,12.60
2023-05-17T07:50:30.879Z,13.10
2023-05-17T07:53:00.678Z,13.30
2023-05-17T07:55:29.223Z,13.70
2023-05-17T07:57:57.636Z,13.80
2023-05-17T08:00:26.541Z,13.50
2023-05-17T08:02:54.830Z,13.80
2023-05-17T08:05:23.297Z,13.50
2023-05-17T08:07:52.292Z,13.10
2023-05-17T08:10:23.170Z,12.80
2023-05-17T08:12:51.380Z,12.60
2023-05-17T08:15:19.612Z,12.80
2023-05-17T08:17:47.955Z,12.90
2023-05-17T08:20:16.617Z,12.90
2023-05-17T08:22:44.865Z,12.70
2023-05-17T08:25:13.119Z,13.30
2023-05-17T08:27:42.781Z,13.70
2023-05-17T08:30:18.167Z,13.90
2023-05-17T08:32:57.705Z,13.90
2023-05-17T08:35:28.891Z,13.70
2023-05-17T08:37:57.468Z,13.70
2023-05-17T08:40:29.781Z,13.90
2023-05-17T08:42:59.909Z,13.80
2023-05-17T08:45:29.412Z,13.30
2023-05-17T08:47:58.043Z,13.10
2023-05-17T08:50:27.337Z,12.90
2023-05-17T08:52:58.576Z,13.20
2023-05-17T08:55:28.180Z,13.50
2023-05-17T08:57:57.039Z,13.50
2023-05-17T09:00:29.106Z,13.40
2023-05-17T09:02:57.983Z,13.20
2023-05-17T09:05:26.575Z,13.40
2023-05-17T09:07:55.216Z,13.60
2023-05-17T09:10:23.832Z,13.40
2023-05-17T09:12:53.531Z,12.90
2023-05-17T09:15:24.954Z,12.60
2023-05-17T09:17:55.744Z,12.40
2023-05-17T09:20:25.546Z,12.40
2023-05-17T09:22:53.856Z,12.60
2023-05-17T09:25:22.769Z,13.10
2023-05-17T09:27:53.912Z,13.10
2023-05-17T09:30:28.861Z,13.10
2023-05-17T09:32:58.903Z,13.10
2023-05-17T09:35:30.824Z,12.90
2023-05-17T09:38:07.719Z,12.80
2023-05-17T09:40:39.816Z,12.70
2023-05-17T09:43:08.396Z,12.80
2023-05-17T09:45:37.819Z,12.80
2023-05-17T09:48:18.273Z,12.70
2023-05-17T09:50:47.403Z,12.80
2023-05-17T09:53:25.520Z,13.00
2023-05-17T09:55:55.599Z,13.10
2023-05-17T09:58:24.149Z,13.20
2023-05-17T10:00:54.214Z,13.20
2023-05-17T10:03:24.127Z,13.30
2023-05-17T10:05:54.010Z,13.20
2023-05-17T10:08:26.040Z,13.10
2023-05-17T10:10:56.459Z,13.00
2023-05-17T10:13:28.577Z,13.10
2023-05-17T10:15:57.079Z,13.50
2023-05-17T10:18:27.119Z,14.50
2023-05-17T10:20:56.000Z,15.50
2023-05-17T10:23:25.366Z,15.50
2023-05-17T10:25:53.808Z,15.20
2023-05-17T10:28:22.805Z,15.10
2023-05-17T10:30:52.411Z,14.90
2023-05-17T10:33:21.910Z,14.90
2023-05-17T10:35:52.834Z,15.00
2023-05-17T10:38:24.055Z,15.60
2023-05-17T10:40:55.319Z,15.90
2023-05-17T10:43:24.847Z,15.40
2023-05-17T10:45:53.278Z,14.80
2023-05-17T10:48:21.756Z,14.20
2023-05-17T10:51:01.065Z,13.80
2023-05-17T10:53:29.694Z,14.00
2023-05-17T10:55:58.963Z,15.00
2023-05-17T10:58:29.775Z,15.70
2023-05-17T11:00:58.025Z,15.40
2023-05-17T11:03:30.272Z,14.80
2023-05-17T11:06:24.578Z,14.70
2023-05-17T11:09:16.398Z,15.00
2023-05-17T11:12:06.169Z,15.30
2023-05-17T11:14:50.099Z,15.10
2023-05-17T11:17:23.139Z,14.70
2023-05-17T11:19:58.136Z,14.40
2023-05-17T11:22:28.836Z,14.40
2023-05-17T11:24:58.824Z,14.40
2023-05-17T11:27:28.874Z,14.60
2023-05-17T11:29:58.893Z,14.90
2023-05-17T11:32:32.270Z,15.30
2023-05-17T11:35:02.278Z,15.80
2023-05-17T11:37:32.686Z,15.80
2023-05-17T11:40:07.066Z,15.70
2023-05-17T11:42:35.749Z,15.30
2023-05-17T11:45:04.193Z,15.00
2023-05-17T11:47:32.672Z,15.20
2023-05-17T11:50:03.312Z,15.60
2023-05-17T11:52:33.720Z,16.00
2023-05-17T11:55:02.692Z,16.50
2023-05-17T11:57:35.234Z,16.80
2023-05-17T12:00:05.428Z,16.60
2023-05-17T12:02:34.357Z,16.50
2023-05-17T12:05:02.925Z,16.70
2023-05-17T12:07:32.837Z,17.20
2023-05-17T12:10:01.096Z,17.70
2023-05-17T12:12:29.439Z,18.10
2023-05-17T12:14:58.819Z,18.30
2023-05-17T12:17:34.537Z,18.10
2023-05-17T12:20:09.142Z,18.00
2023-05-17T12:22:53.106Z,17.30
2023-05-17T12:25:23.483Z,17.20
2023-05-17T12:27:51.740Z,17.40
2023-05-17T12:30:20.633Z,17.60
2023-05-17T12:32:49.205Z,17.80
2023-05-17T12:35:17.765Z,17.70
2023-05-17T12:37:47.438Z,17.90
2023-05-17T12:40:15.787Z,18.50
2023-05-17T12:42:44.048Z,18.40
2023-05-17T12:45:13.756Z,17.80
2023-05-17T12:47:42.068Z,17.60
2023-05-17T12:50:11.331Z,17.50
2023-05-17T12:52:41.455Z,17.40
2023-05-17T12:55:14.486Z,17.50
2023-05-17T12:57:50.734Z,17.30
2023-05-17T13:00:20.153Z,16.80
2023-05-17T13:02:48.529Z,16.60
2023-05-17T13:05:18.738Z,16.90
2023-05-17T13:07:47.403Z,17.10
2023-05-17T13:10:26.125Z,16.80
2023-05-17T13:12:58.592Z,16.70
2023-05-17T13:15:31.111Z,17.30
2023-05-17T13:18:00.905Z,17.30
2023-05-17T13:20:29.512Z,17.00
2023-05-17T13:22:58.087Z,17.10
2023-05-17T13:25:27.744Z,17.30
2023-05-17T13:27:55.968Z,17.10
2023-05-17T13:30:24.332Z,17.00
2023-05-17T13:32:54.524Z,17.10
2023-05-17T13:35:22.948Z,17.00
2023-05-17T13:37:51.497Z,16.60
2023-05-17T13:40:20.052Z,16.20
2023-05-17T13:42:49.781Z,16.10
2023-05-17T13:45:18.012Z,16.00
2023-05-17T13:47:46.481Z,16.00
2023-05-17T13:50:17.308Z,16.40
2023-05-17T13:52:45.635Z,16.60
2023-05-17T13:55:13.920Z,16.70
2023-05-17T13:57:42.307Z,17.00
2023-05-17T14:00:13.908Z,17.30
2023-05-17T14:02:42.220Z,17.40
2023-05-17T14:05:11.180Z,17.30
2023-05-17T14:07:43.049Z,17.90
2023-05-17T14:10:13.118Z,18.40
2023-05-17T14:12:42.201Z,18.70
2023-05-17T14:15:16.017Z,19.10
2023-05-17T14:17:44.282Z,18.90
2023-05-17T14:20:14.184Z,18.90
2023-05-17T14:22:42.590Z,18.60
2023-05-17T14:25:12.607Z,18.40
2023-05-17T14:27:40.837Z,17.80
2023-05-17T14:30:11.591Z,17.30
2023-05-17T14:32:45.660Z,17.60
2023-05-17T14:35:14.076Z,17.80
2023-05-17T14:37:45.460Z,17.80
2023-05-17T14:40:14.169Z,17.40
2023-05-17T14:42:43.301Z,16.90
2023-05-17T14:45:11.756Z,16.90
2023-05-17T14:47:40.150Z,17.60
2023-05-17T14:50:10.753Z,17.90
2023-05-17T14:52:39.100Z,17.80
2023-05-17T14:55:10.910Z,17.70
2023-05-17T14:57:41.104Z,17.50
2023-05-17T15:00:11.478Z,17.80
2023-05-17T15:02:40.266Z,18.10
2023-05-17T15:05:11.009Z,18.70
2023-05-17T15:07:39.310Z,18.80
2023-05-17T15:10:09.945Z,19.10
2023-05-17T15:12:38.454Z,19.30
2023-05-17T15:15:08.039Z,19.10
2023-05-17T15:17:36.618Z,18.40
2023-05-17T15:20:05.623Z,17.60
2023-05-17T15:22:35.308Z,17.00
2023-05-17T15:25:03.534Z,16.50
2023-05-17T15:27:31.764Z,16.20
2023-05-17T15:30:00.278Z,16.00
2023-05-17T15:32:28.519Z,15.80
2023-05-17T15:34:59.117Z,15.60
2023-05-17T15:37:27.342Z,15.40
2023-05-17T15:39:57.168Z,15.30
2023-05-17T15:42:25.474Z,15.20
2023-05-17T15:45:02.615Z,15.40
2023-05-17T15:47:42.606Z,15.80
2023-05-17T15:50:12.495Z,16.50
2023-05-17T15:52:40.782Z,17.00
2023-05-17T15:55:11.182Z,17.10
2023-05-17T15:57:39.497Z,16.80
2023-05-17T16:00:09.029Z,16.60
2023-05-17T16:02:37.396Z,16.30
2023-05-17T16:05:06.325Z,15.80
2023-05-17T16:07:34.565Z,15.40
2023-05-17T16:10:03.110Z,15.10
2023-05-17T16:12:32.829Z,14.80
2023-05-17T16:15:01.050Z,14.50
2023-05-17T16:17:29.366Z,14.30
2023-05-17T16:20:00.499Z,14.10
2023-05-17T16:22:28.883Z,14.00
2023-05-17T16:24:59.662Z,13.90
2023-05-17T16:27:27.865Z,13.80
2023-05-17T16:29:57.520Z,13.70
2023-05-17T16:32:26.107Z,13.60
2023-05-17T16:34:54.341Z,13.50
2023-05-17T16:37:23.028Z,13.50
2023-05-17T16:39:54.108Z,13.40
2023-05-17T16:42:22.361Z,13.40
2023-05-17T16:44:50.858Z,13.40
2023-05-17T16:47:23.718Z,13.40
2023-05-17T16:49:52.048Z,13.50
2023-05-17T16:52:20.912Z,13.70
2023-05-17T16:54:49.252Z,13.80
2023-05-17T16:57:17.864Z,13.70
2023-05-17T16:59:48.680Z,13.60
2023-05-17T17:02:17.857Z,13.60
2023-05-17T17:04:47.539Z,13.60
2023-05-17T17:07:15.789Z,13.80
2023-05-17T17:09:44.009Z,14.00
2023-05-17T17:12:23.606Z,14.20
2023-05-17T17:14:52.763Z,14.20
2023-05-17T17:17:21.037Z,14.40
2023-05-17T17:19:50.822Z,14.50
2023-05-17T17:22:19.037Z,14.60
2023-05-17T17:24:47.242Z,14.60
2023-05-17T17:27:15.522Z,14.80
2023-05-17T17:29:43.770Z,15.20
2023-05-17T17:32:12.152Z,15.30
2023-05-17T17:34:40.431Z,15.10
2023-05-17T17:37:10.026Z,14.80
2023-05-17T17:39:38.253Z,14.30
2023-05-17T17:42:06.881Z,13.80
2023-05-17T17:44:35.114Z,13.40
2023-05-17T17:47:03.481Z,13.10
2023-05-17T17:49:31.755Z,12.80
2023-05-17T17:52:00.015Z,12.60
2023-05-17T17:54:30.072Z,12.30
2023-05-17T17:57:04.588Z,12.20
2023-05-17T17:59:33.832Z,12.00
2023-05-17T18:02:05.241Z,11.80
2023-05-17T18:04:33.522Z,11.70
2023-05-17T18:07:02.268Z,11.50
2023-05-17T18:09:31.873Z,11.40
2023-05-17T18:12:03.229Z,11.30
2023-05-17T18:14:34.312Z,11.20
2023-05-17T18:17:08.192Z,11.10
2023-05-17T18:19:42.070Z,11.00
2023-05-17T18:22:10.316Z,10.80
2023-05-17T18:24:39.966Z,10.80
2023-05-17T18:27:13.226Z,10.60
2023-05-17T18:29:41.512Z,10.50
2023-05-17T18:32:10.457Z,10.40
2023-05-17T18:34:38.797Z,10.40
2023-05-17T18:37:07.041Z,10.30
2023-05-17T18:39:36.250Z,10.20
2023-05-17T18:42:09.376Z,10.10
2023-05-17T18:44:37.673Z,10.00
2023-05-17T18:47:09.276Z,10.00
2023-05-17T18:49:41.043Z,9.90
2023-05-17T18:52:09.275Z,9.90
2023-05-17T18:54:37.508Z,9.80
2023-05-17T18:57:09.624Z,9.70
2023-05-17T18:59:41.681Z,9.60
2023-05-17T19:02:09.947Z,9.50
2023-05-17T19:04:38.238Z,9.40
2023-05-17T19:07:06.694Z,9.40
2023-05-17T19:09:34.991Z,9.30
2023-05-17T19:12:09.271Z,9.30
2023-05-17T19:14:40.302Z,9.20
2023-05-17T19:17:10.247Z,9.10
2023-05-17T19:19:38.698Z,9.10
2023-05-17T19:22:07.039Z,9.00
2023-05-17T19:24:40.930Z,8.90
2023-05-17T19:27:09.365Z,8.90
2023-05-17T19:29:42.771Z,8.80
2023-05-17T19:32:10.984Z,8.80
2023-05-17T19:34:39.249Z,8.70
2023-05-17T19:37:07.454Z,8.60
2023-05-17T19:39:37.272Z,8.50
2023-05-17T19:42:06.360Z,8.50
2023-05-17T19:44:34.633Z,8.40
2023-05-17T19:47:04.288Z,8.30
2023-05-17T19:49:32.653Z,8.20
2023-05-17T19:52:01.622Z,8.20
2023-05-17T19:54:32.967Z,8.20
2023-05-17T19:57:04.384Z,8.20
2023-05-17T19:59:32.733Z,8.10
2023-05-17T20:02:05.280Z,8.10
2023-05-17T20:04:33.558Z,8.10
2023-05-17T20:07:02.264Z,8.10
2023-05-17T20:09:32.103Z,8.10
2023-05-17T20:12:00.768Z,8.00
2023-05-17T20:14:31.921Z,8.10
2023-05-17T20:17:00.176Z,8.30
2023-05-17T20:19:30.107Z,8.40
2023-05-17T20:21:58.457Z,8.40
2023-05-17T20:24:29.040Z,8.30
2023-05-17T20:27:01.399Z,8.20
2023-05-17T20:29:29.617Z,8.10
2023-05-17T20:31:57.942Z,8.00
2023-05-17T20:34:30.874Z,8.00
2023-05-17T20:36:59.630Z,7.90
2023-05-17T20:39:29.617Z,7.80
2023-05-17T20:41:58.371Z,7.80
2023-05-17T20:44:26.763Z,7.80
2023-05-17T20:46:56.583Z,7.80
2023-05-17T20:49:24.920Z,7.80
2023-05-17T20:51:59.550Z,7.80
2023-05-17T20:54:27.833Z,7.80
2023-05-17T20:56:56.280Z,7.80
2023-05-17T20:59:25.858Z,7.80
2023-05-17T21:01:54.207Z,7.80
2023-05-17T21:04:22.541Z,7.80
2023-05-17T21:06:58.240Z,7.80
2023-05-17T21:09:28.064Z,7.80
2023-05-17T21:11:56.616Z,7.70
2023-05-17T21:14:24.839Z,7.60
2023-05-17T21:16:53.465Z,7.60
2023-05-17T21:19:21.786Z,7.50
2023-05-17T21:21:50.171Z,7.40
2023-05-17T21:24:19.808Z,7.30
2023-05-17T21:26:48.106Z,7.20
2023-05-17T21:29:22.319Z,7.10
2023-05-17T21:31:50.649Z,7.10
2023-05-17T21:34:22.090Z,7.00
2023-05-17T21:36:50.377Z,7.00
2023-05-17T21:39:20.023Z,6.80
2023-05-17T21:41:49.039Z,6.80
2023-05-17T21:44:17.318Z,6.70
2023-05-17T21:46:45.958Z,6.80
2023-05-17T21:49:14.249Z,6.90
2023-05-17T21:51:43.857Z,6.90
2023-05-17T21:54:12.075Z,6.90
2023-05-17T21:56:41.695Z,6.90
2023-05-17T21:59:09.928Z,6.90
2023-05-17T22:01:38.187Z,6.80
2023-05-17T22:04:07.102Z,6.70
2023-05-17T22:06:35.672Z,6.60
2023-05-17T22:09:06.133Z,6.50
2023-05-17T22:11:38.296Z,6.50
2023-05-17T22:14:08.545Z,6.50
2023-05-17T22:16:37.532Z,6.40
2023-05-17T22:19:06.181Z,6.40
2023-05-17T22:21:34.451Z,6.30
2023-05-17T22:24:02.663Z,6.10
2023-05-17T22:26:31.014Z,6.00
2023-05-17T22:28:59.485Z,6.00
2023-05-17T22:31:29.151Z,5.90
2023-05-17T22:33:57.423Z,5.90
2023-05-17T22:36:26.711Z,5.80
2023-05-17T22:38:56.754Z,5.60
2023-05-17T22:41:25.023Z,5.50
2023-05-17T22:43:53.417Z,5.40
2023-05-17T22:46:21.762Z,5.40
2023-05-17T22:48:52.782Z,5.50
2023-05-17T22:51:22.535Z,5.50
2023-05-17T22:53:50.972Z,5.50
2023-05-17T22:56:19.208Z,5.40
2023-05-17T22:58:47.520Z,5.30
2023-05-17T23:01:15.893Z,5.20
2023-05-17T23:03:44.253Z,5.10
2023-05-17T23:06:13.948Z,5.10
2023-05-17T23:08:42.450Z,5.00
2023-05-17T23:11:10.732Z,5.00
2023-05-17T23:13:39.368Z,5.00
2023-05-17T23:16:08.250Z,4.90
2023-05-17T23:18:38.205Z,4.90
2023-05-17T23:21:06.503Z,4.90
2023-05-17T23:23:38.123Z,4.80
2023-05-17T23:26:06.725Z,4.80
2023-05-17T23:28:35.508Z,4.70
2023-05-17T23:31:05.739Z,4.70
2023-05-17T23:33:34.186Z,4.70
2023-05-17T23:36:02.402Z,4.60
2023-05-17T23:38:30.674Z,4.50
2023-05-17T23:41:01.043Z,4.50
2023-05-17T23:43:29.312Z,4.50
2023-05-17T23:45:57.615Z,4.50
2023-05-17T23:48:26.657Z,4.50
2023-05-17T23:50:54.996Z,4.40
2023-05-17T23:53:23.703Z,4.40
2023-05-17T23:55:51.988Z,4.40
2023-05-17T23:58:21.650Z,4.30
